createdAt,value
2022-10-12T00:01:31.553Z,5.50
2022-10-12T00:03:57.977Z,5.10
2022-10-12T00:06:25.334Z,5.77
2022-10-12T00:08:53.274Z,5.70
2022-10-12T00:11:22.185Z,5.10
2022-10-12T00:13:48.971Z,5.40
2022-10-12T00:16:17.233Z,5.20
2022-10-12T00:18:43.778Z,5.47
2022-10-12T00:21:15.375Z,5.03
2022-10-12T00:23:42.587Z,6.07
2022-10-12T00:26:20.605Z,5.23
2022-10-12T00:28:47.741Z,5.00
2022-10-12T00:31:19.336Z,5.20
2022-10-12T00:33:46.868Z,5.43
2022-10-12T00:36:27.812Z,5.33
2022-10-12T00:38:55.857Z,5.60
2022-10-12T00:41:25.633Z,5.40
2022-10-12T00:43:57.939Z,4.73
2022-10-12T00:46:36.463Z,6.37
2022-10-12T00:49:08.779Z,5.77
2022-10-12T00:51:35.147Z,4.90
2022-10-12T00:54:06.531Z,5.37
2022-10-12T00:56:35.313Z,5.70
2022-10-12T00:59:03.669Z,5.23
2022-10-12T01:01:33.512Z,5.10
2022-10-12T01:04:00.358Z,4.97
2022-10-12T01:06:26.787Z,5.63
2022-10-12T01:08:55.034Z,5.70
2022-10-12T01:11:21.419Z,5.97
2022-10-12T01:13:48.025Z,5.07
2022-10-12T01:16:34.777Z,5.00
2022-10-12T01:19:20.895Z,5.00
2022-10-12T01:22:16.233Z,5.80
2022-10-12T01:24:53.729Z,5.33
2022-10-12T01:27:45.181Z,4.87
2022-10-12T01:30:27.113Z,4.80
2022-10-12T01:33:02.566Z,4.80
2022-10-12T01:35:46.229Z,5.27
2022-10-12T01:38:28.721Z,4.40
2022-10-12T01:41:04.991Z,4.53
2022-10-12T01:43:36.727Z,4.77
2022-10-12T01:46:14.961Z,4.87
2022-10-12T01:48:42.098Z,4.13
2022-10-12T01:51:11.062Z,4.90
2022-10-12T01:53:42.378Z,4.07
2022-10-12T01:56:18.347Z,4.40
2022-10-12T01:58:57.840Z,4.43
2022-10-12T02:01:54.660Z,5.33
2022-10-12T02:04:50.011Z,4.73
2022-10-12T02:07:44.032Z,4.43
2022-10-12T02:10:16.547Z,4.47
2022-10-12T02:12:44.330Z,4.80
2022-10-12T02:15:11.924Z,4.47
2022-10-12T02:17:40.138Z,4.67
2022-10-12T02:20:09.409Z,4.57
2022-10-12T02:22:37.024Z,4.47
2022-10-12T02:25:07.124Z,4.73
2022-10-12T02:27:35.408Z,4.30
2022-10-12T02:30:02.612Z,4.33
2022-10-12T02:32:52.837Z,4.47
2022-10-12T02:35:25.478Z,4.27
2022-10-12T02:38:05.061Z,4.43
2022-10-12T02:40:41.855Z,4.40
2022-10-12T02:43:25.465Z,4.43
2022-10-12T02:45:53.535Z,4.17
2022-10-12T02:48:22.470Z,3.63
2022-10-12T02:50:51.711Z,4.13
2022-10-12T02:53:18.128Z,4.17
2022-10-12T02:55:53.013Z,4.73
2022-10-12T02:58:19.806Z,4.60
2022-10-12T03:00:46.838Z,4.60
2022-10-12T03:03:13.779Z,4.23
2022-10-12T03:05:40.165Z,4.20
2022-10-12T03:08:06.557Z,4.53
2022-10-12T03:10:33.098Z,4.77
2022-10-12T03:12:59.449Z,4.37
2022-10-12T03:15:25.846Z,4.47
2022-10-12T03:17:52.280Z,4.37
2022-10-12T03:20:18.689Z,4.50
2022-10-12T03:22:45.100Z,4.00
2022-10-12T03:25:11.479Z,4.27
2022-10-12T03:27:38.080Z,4.23
2022-10-12T03:30:04.963Z,4.37
2022-10-12T03:32:31.344Z,4.27
2022-10-12T03:34:57.784Z,4.73
2022-10-12T03:37:24.426Z,5.57
2022-10-12T03:39:50.895Z,4.53
2022-10-12T03:42:17.265Z,4.50
2022-10-12T03:44:43.689Z,4.37
2022-10-12T03:47:10.100Z,4.23
2022-10-12T03:49:36.521Z,4.53
2022-10-12T03:52:03.413Z,4.33
2022-10-12T03:54:30.509Z,4.57
2022-10-12T03:56:56.902Z,4.37
2022-10-12T03:59:23.297Z,4.60
2022-10-12T04:01:49.830Z,4.53
2022-10-12T04:04:16.302Z,4.70
2022-10-12T04:06:42.752Z,5.37
2022-10-12T04:09:09.275Z,4.60
2022-10-12T04:11:35.660Z,4.70
2022-10-12T04:14:02.102Z,5.30
2022-10-12T04:16:31.044Z,5.30
2022-10-12T04:18:57.825Z,4.80
2022-10-12T04:21:24.700Z,5.30
2022-10-12T04:23:51.158Z,5.13
2022-10-12T04:26:17.615Z,5.73
2022-10-12T04:28:44.086Z,5.20
2022-10-12T04:31:10.497Z,5.50
2022-10-12T04:33:36.887Z,6.23
2022-10-12T04:36:03.357Z,5.83
2022-10-12T04:38:29.723Z,5.50
2022-10-12T04:40:56.120Z,5.67
2022-10-12T04:43:22.489Z,6.40
2022-10-12T04:45:59.793Z,6.60
2022-10-12T04:48:27.089Z,5.67
2022-10-12T04:50:53.722Z,5.50
2022-10-12T04:53:20.172Z,5.37
2022-10-12T04:55:46.575Z,5.73
2022-10-12T04:58:14.357Z,6.23
2022-10-12T05:00:40.985Z,5.77
2022-10-12T05:03:07.361Z,5.63
2022-10-12T05:05:34.531Z,5.70
2022-10-12T05:08:00.940Z,5.80
2022-10-12T05:10:27.593Z,5.73
2022-10-12T05:12:54.058Z,5.83
2022-10-12T05:15:20.463Z,6.27
2022-10-12T05:17:46.827Z,6.83
2022-10-12T05:20:13.519Z,6.13
2022-10-12T05:22:40.492Z,5.63
2022-10-12T05:25:07.860Z,6.07
2022-10-12T05:27:34.294Z,6.37
2022-10-12T05:30:00.712Z,5.73
2022-10-12T05:32:27.145Z,6.40
2022-10-12T05:34:55.123Z,6.10
2022-10-12T05:37:21.499Z,6.47
2022-10-12T05:39:49.741Z,6.57
2022-10-12T05:42:16.396Z,6.70
2022-10-12T05:44:42.788Z,6.70
2022-10-12T05:47:09.154Z,6.60
2022-10-12T05:49:35.608Z,6.30
2022-10-12T05:52:02.054Z,6.83
2022-10-12T05:54:28.473Z,6.97
2022-10-12T05:56:54.878Z,6.73
2022-10-12T05:59:21.331Z,6.20
2022-10-12T06:01:48.007Z,6.77
2022-10-12T06:04:14.437Z,6.13
2022-10-12T06:06:40.836Z,6.30
2022-10-12T06:09:07.308Z,7.00
2022-10-12T06:11:36.393Z,7.10
2022-10-12T06:14:03.777Z,6.03
2022-10-12T06:16:30.435Z,6.17
2022-10-12T06:18:56.842Z,6.27
2022-10-12T06:21:38.466Z,6.37
2022-10-12T06:24:05.069Z,6.57
2022-10-12T06:26:31.466Z,6.87
2022-10-12T06:28:57.944Z,6.33
2022-10-12T06:31:24.564Z,6.53
2022-10-12T06:33:51.056Z,7.00
2022-10-12T06:36:17.569Z,8.10
2022-10-12T06:38:43.939Z,7.40
2022-10-12T06:41:10.566Z,6.63
2022-10-12T06:43:37.153Z,6.43
2022-10-12T06:46:03.773Z,5.87
2022-10-12T06:48:30.285Z,6.23
2022-10-12T06:50:56.736Z,6.70
2022-10-12T06:53:23.261Z,6.67
2022-10-12T06:55:49.683Z,6.83
2022-10-12T06:58:16.109Z,7.83
2022-10-12T07:00:42.594Z,7.77
2022-10-12T07:03:12.206Z,8.33
2022-10-12T07:05:38.617Z,7.10
2022-10-12T07:08:05.024Z,7.63
2022-10-12T07:10:31.597Z,7.97
2022-10-12T07:12:58.241Z,7.70
2022-10-12T07:15:24.838Z,7.37
2022-10-12T07:17:51.218Z,7.50
2022-10-12T07:20:17.657Z,7.50
2022-10-12T07:22:44.701Z,7.40
2022-10-12T07:25:11.118Z,7.57
2022-10-12T07:27:37.910Z,6.83
2022-10-12T07:30:05.256Z,8.53
2022-10-12T07:32:31.656Z,7.53
2022-10-12T07:34:58.073Z,8.23
2022-10-12T07:37:24.563Z,7.17
2022-10-12T07:39:56.956Z,8.17
2022-10-12T07:42:24.493Z,8.90
2022-10-12T07:44:50.945Z,8.37
2022-10-12T07:47:17.775Z,8.10
2022-10-12T07:49:44.228Z,8.33
2022-10-12T07:52:10.749Z,8.70
2022-10-12T07:54:37.155Z,7.33
2022-10-12T07:57:03.762Z,8.40
2022-10-12T07:59:30.138Z,8.50
2022-10-12T08:01:56.572Z,8.57
2022-10-12T08:04:23.020Z,8.00
2022-10-12T08:06:49.628Z,8.13
2022-10-12T08:09:16.160Z,10.33
2022-10-12T08:11:42.632Z,8.07
2022-10-12T08:14:18.126Z,6.93
2022-10-12T08:16:45.013Z,7.07
2022-10-12T08:19:11.868Z,7.10
2022-10-12T08:21:38.325Z,6.47
2022-10-12T08:24:05.033Z,6.67
2022-10-12T08:26:33.295Z,5.97
2022-10-12T08:29:01.761Z,6.10
2022-10-12T08:31:28.280Z,8.73
2022-10-12T08:33:54.664Z,7.97
2022-10-12T08:36:21.071Z,7.30
2022-10-12T08:38:52.636Z,7.27
2022-10-12T08:41:22.111Z,5.70
2022-10-12T08:44:09.967Z,6.23
2022-10-12T08:46:36.742Z,5.73
2022-10-12T08:49:07.087Z,5.80
2022-10-12T08:51:39.573Z,5.37
2022-10-12T08:54:08.421Z,5.87
2022-10-12T08:56:35.798Z,4.33
2022-10-12T08:59:03.449Z,4.63
2022-10-12T09:01:47.895Z,4.07
2022-10-12T09:04:56.060Z,4.07
2022-10-12T09:07:22.690Z,4.40
2022-10-12T09:09:57.149Z,4.03
2022-10-12T09:12:27.746Z,3.60
2022-10-12T09:15:02.770Z,3.53
2022-10-12T09:17:41.500Z,3.33
2022-10-12T09:20:18.408Z,3.10
2022-10-12T09:22:48.632Z,4.10
2022-10-12T09:25:16.823Z,7.47
2022-10-12T09:27:46.109Z,4.43
2022-10-12T09:30:15.089Z,4.63
2022-10-12T09:32:57.315Z,3.87
2022-10-12T09:35:24.206Z,4.70
2022-10-12T09:37:52.780Z,4.10
2022-10-12T09:40:23.856Z,3.60
2022-10-12T09:42:51.158Z,4.30
2022-10-12T09:45:19.724Z,3.40
2022-10-12T09:48:10.392Z,3.00
2022-10-12T09:50:51.270Z,3.83
2022-10-12T09:53:22.557Z,4.80
2022-10-12T09:56:16.747Z,3.67
2022-10-12T09:58:51.289Z,4.13
2022-10-12T10:01:29.135Z,4.07
2022-10-12T10:04:14.069Z,3.10
2022-10-12T10:06:43.985Z,2.93
2022-10-12T10:09:29.373Z,3.17
2022-10-12T10:11:57.332Z,2.33
2022-10-12T10:14:24.053Z,3.13
2022-10-12T10:16:51.991Z,2.97
2022-10-12T10:19:20.641Z,3.50
2022-10-12T10:21:47.098Z,3.50
2022-10-12T10:24:29.212Z,2.63
2022-10-12T10:27:01.465Z,2.87
2022-10-12T10:29:36.568Z,4.27
2022-10-12T10:32:30.094Z,3.23
2022-10-12T10:35:07.689Z,3.10
2022-10-12T10:37:35.252Z,3.20
2022-10-12T10:40:02.563Z,3.10
2022-10-12T10:42:31.955Z,2.47
2022-10-12T10:45:00.207Z,2.70
2022-10-12T10:47:27.278Z,2.77
2022-10-12T10:50:01.940Z,2.80
2022-10-12T10:52:35.051Z,2.27
2022-10-12T10:55:12.547Z,2.67
2022-10-12T10:57:43.383Z,2.57
2022-10-12T11:03:25.599Z,2.53
2022-10-12T11:06:16.997Z,2.77
2022-10-12T11:08:44.561Z,2.70
2022-10-12T11:11:16.609Z,2.70
2022-10-12T11:13:48.095Z,3.10
2022-10-12T11:16:34.621Z,3.10
2022-10-12T11:19:33.900Z,2.83
2022-10-12T11:22:11.017Z,2.70
2022-10-12T11:24:47.211Z,2.60
2022-10-12T11:27:31.917Z,3.17
2022-10-12T11:30:09.384Z,2.53
2022-10-12T11:32:45.957Z,3.20
2022-10-12T11:35:38.585Z,2.70
2022-10-12T11:38:15.478Z,2.10
2022-10-12T11:41:33.899Z,2.73
2022-10-12T11:43:46.573Z,2.50
2022-10-12T11:46:16.359Z,2.47
2022-10-12T11:48:56.921Z,2.17
2022-10-12T11:51:23.369Z,2.30
2022-10-12T11:53:56.086Z,2.20
2022-10-12T11:56:48.173Z,2.20
2022-10-12T11:59:28.490Z,2.07
2022-10-12T12:02:09.247Z,2.53
2022-10-12T12:04:42.181Z,2.47
2022-10-12T12:07:37.246Z,2.40
2022-10-12T12:10:25.497Z,2.27
2022-10-12T12:13:15.033Z,2.60
2022-10-12T12:15:52.380Z,3.27
2022-10-12T12:18:27.820Z,2.33
2022-10-12T12:21:09.336Z,2.40
2022-10-12T12:23:51.346Z,3.47
2022-10-12T12:26:19.588Z,2.60
2022-10-12T12:28:48.443Z,2.50
2022-10-12T12:31:27.567Z,2.37
2022-10-12T12:34:13.482Z,2.50
2022-10-12T12:36:47.790Z,2.67
2022-10-12T12:39:30.547Z,2.60
2022-10-12T12:42:01.973Z,2.50
2022-10-12T12:44:38.177Z,2.33
2022-10-12T12:47:20.539Z,2.00
2022-10-12T12:49:55.667Z,2.17
2022-10-12T12:52:29.381Z,2.50
2022-10-12T12:55:05.059Z,2.47
2022-10-12T12:57:38.292Z,1.97
2022-10-12T13:00:19.547Z,2.40
2022-10-12T13:02:53.343Z,2.00
2022-10-12T13:05:42.040Z,1.77
2022-10-12T13:08:26.748Z,2.03
2022-10-12T13:11:12.222Z,1.90
2022-10-12T13:13:47.912Z,1.77
2022-10-12T13:19:22.221Z,1.80
2022-10-12T13:21:51.670Z,2.10
2022-10-12T13:24:44.609Z,2.47
2022-10-12T13:27:21.517Z,2.23
2022-10-12T13:30:00.577Z,2.27
2022-10-12T13:32:33.609Z,2.13
2022-10-12T13:35:07.192Z,2.13
2022-10-12T13:37:34.984Z,2.00
2022-10-12T13:40:01.753Z,1.83
2022-10-12T13:42:32.068Z,2.47
2022-10-12T13:44:58.945Z,2.20
2022-10-12T13:47:31.823Z,2.00
2022-10-12T13:49:58.882Z,2.00
2022-10-12T13:52:32.115Z,1.70
2022-10-12T13:54:59.846Z,1.83
2022-10-12T13:57:43.683Z,1.83
2022-10-12T14:00:19.718Z,1.93
2022-10-12T14:02:57.957Z,1.97
2022-10-12T14:05:26.781Z,2.30
2022-10-12T14:07:56.441Z,1.80
2022-10-12T14:10:35.042Z,2.27
2022-10-12T14:13:02.350Z,1.40
2022-10-12T14:15:32.700Z,2.10
2022-10-12T14:17:59.123Z,1.93
2022-10-12T14:20:33.172Z,2.10
2022-10-12T14:23:00.643Z,2.10
2022-10-12T14:25:29.301Z,2.40
2022-10-12T14:28:04.208Z,1.80
2022-10-12T14:30:31.452Z,1.90
2022-10-12T14:33:16.079Z,2.30
2022-10-12T14:35:46.692Z,2.13
2022-10-12T14:38:39.711Z,1.90
2022-10-12T14:41:32.432Z,2.00
2022-10-12T14:44:15.965Z,2.20
2022-10-12T14:46:55.686Z,2.10
2022-10-12T14:49:26.475Z,1.90
2022-10-12T14:51:54.243Z,2.57
2022-10-12T14:54:21.595Z,2.63
2022-10-12T14:56:47.974Z,2.33
2022-10-12T14:59:14.377Z,2.20
2022-10-12T15:01:42.128Z,1.90
2022-10-12T15:04:13.771Z,2.07
2022-10-12T15:06:40.364Z,2.20
2022-10-12T15:09:06.729Z,2.00
2022-10-12T15:11:33.261Z,2.13
2022-10-12T15:13:59.694Z,2.63
2022-10-12T15:16:28.404Z,2.50
2022-10-12T15:18:54.815Z,2.30
2022-10-12T15:21:21.350Z,2.07
2022-10-12T15:23:47.796Z,2.20
2022-10-12T15:26:17.191Z,2.40
2022-10-12T15:28:44.533Z,2.43
2022-10-12T15:31:18.291Z,2.70
2022-10-12T15:33:45.207Z,2.63
2022-10-12T15:36:22.437Z,2.60
2022-10-12T15:38:48.983Z,1.93
2022-10-12T15:41:21.040Z,1.97
2022-10-12T15:43:47.462Z,1.87
2022-10-12T15:46:13.886Z,2.60
2022-10-12T15:48:40.544Z,2.47
2022-10-12T15:51:17.939Z,1.80
2022-10-12T15:53:44.914Z,2.13
2022-10-12T15:56:13.366Z,1.93
2022-10-12T15:58:40.035Z,1.77
2022-10-12T16:01:07.363Z,2.13
2022-10-12T16:03:33.821Z,2.37
2022-10-12T16:06:00.287Z,2.20
2022-10-12T16:08:26.684Z,1.80
2022-10-12T16:10:53.166Z,1.63
2022-10-12T16:13:19.661Z,2.20
2022-10-12T16:15:46.196Z,1.97
2022-10-12T16:18:15.444Z,2.67
2022-10-12T16:20:42.665Z,2.20
2022-10-12T16:23:14.560Z,3.03
2022-10-12T16:25:40.985Z,2.10
2022-10-12T16:28:07.359Z,2.63
2022-10-12T16:30:33.745Z,2.60
2022-10-12T16:33:00.169Z,2.50
2022-10-12T16:35:26.594Z,2.33
2022-10-12T16:37:52.994Z,2.60
2022-10-12T16:40:19.535Z,2.80
2022-10-12T16:42:53.034Z,3.27
2022-10-12T16:45:26.881Z,3.50
2022-10-12T16:47:54.037Z,4.17
2022-10-12T16:50:22.390Z,2.73
2022-10-12T16:52:48.955Z,3.50
2022-10-12T16:55:15.984Z,3.10
2022-10-12T16:57:42.726Z,3.03
2022-10-12T17:00:11.858Z,3.00
2022-10-12T17:02:38.381Z,3.00
2022-10-12T17:05:05.517Z,4.57
2022-10-12T17:07:33.894Z,5.60
2022-10-12T17:10:00.309Z,3.80
2022-10-12T17:12:27.316Z,3.60
2022-10-12T17:14:54.188Z,3.70
2022-10-12T17:17:21.098Z,3.43
2022-10-12T17:19:47.595Z,4.40
2022-10-12T17:22:14.755Z,4.00
2022-10-12T17:24:42.717Z,4.10
2022-10-12T17:27:11.657Z,3.93
2022-10-12T17:29:42.225Z,4.23
2022-10-12T17:32:10.323Z,4.83
2022-10-12T17:34:39.879Z,4.33
2022-10-12T17:37:07.763Z,4.60
2022-10-12T17:39:37.302Z,4.90
2022-10-12T17:42:04.472Z,5.53
2022-10-12T17:44:31.057Z,5.20
2022-10-12T17:46:58.780Z,5.37
2022-10-12T17:49:26.526Z,6.23
2022-10-12T17:51:53.098Z,6.53
2022-10-12T17:54:20.212Z,6.30
2022-10-12T17:56:46.605Z,5.87
2022-10-12T17:59:15.415Z,5.30
2022-10-12T18:01:42.021Z,7.80
2022-10-12T18:04:09.553Z,8.43
2022-10-12T18:06:35.990Z,8.13
2022-10-12T18:09:02.953Z,6.10
2022-10-12T18:11:29.427Z,6.20
2022-10-12T18:13:56.887Z,6.63
2022-10-12T18:16:25.708Z,6.50
2022-10-12T18:18:54.287Z,6.00
2022-10-12T18:21:23.886Z,5.70
2022-10-12T18:23:50.734Z,5.33
2022-10-12T18:26:21.762Z,5.13
2022-10-12T18:28:53.167Z,6.27
2022-10-12T18:31:25.219Z,5.87
2022-10-12T18:33:52.830Z,5.30
2022-10-12T18:36:19.882Z,5.57
2022-10-12T18:38:46.892Z,6.10
2022-10-12T18:41:18.547Z,5.77
2022-10-12T18:43:45.321Z,5.47
2022-10-12T18:46:14.086Z,5.57
2022-10-12T18:48:40.547Z,5.83
2022-10-12T18:51:08.671Z,5.73
2022-10-12T18:53:35.483Z,5.30
2022-10-12T18:56:04.944Z,5.20
2022-10-12T18:58:31.507Z,5.40
2022-10-12T19:00:58.446Z,6.03
2022-10-12T19:03:25.668Z,6.70
2022-10-12T19:05:52.227Z,5.73
2022-10-12T19:08:18.973Z,5.77
2022-10-12T19:10:45.382Z,5.83
2022-10-12T19:13:11.769Z,6.10
2022-10-12T19:15:38.468Z,6.07
2022-10-12T19:18:05.603Z,6.70
2022-10-12T19:20:32.665Z,7.30
2022-10-12T19:22:59.272Z,7.10
2022-10-12T19:25:25.831Z,6.43
2022-10-12T19:27:52.247Z,6.17
2022-10-12T19:30:18.738Z,7.07
2022-10-12T19:32:46.900Z,7.67
2022-10-12T19:35:13.573Z,7.63
2022-10-12T19:37:40.007Z,7.93
2022-10-12T19:40:07.894Z,7.47
2022-10-12T19:42:34.628Z,7.97
2022-10-12T19:45:02.864Z,7.00
2022-10-12T19:47:29.696Z,7.60
2022-10-12T19:49:56.107Z,7.50
2022-10-12T19:52:22.569Z,7.93
2022-10-12T19:54:49.101Z,7.47
2022-10-12T19:57:15.970Z,8.33
2022-10-12T19:59:42.374Z,7.90
2022-10-12T20:02:10.432Z,7.60
2022-10-12T20:04:36.905Z,8.63
2022-10-12T20:07:03.360Z,9.27
2022-10-12T20:09:30.578Z,7.70
2022-10-12T20:11:57.038Z,7.97
2022-10-12T20:14:23.590Z,7.67
2022-10-12T20:16:50.052Z,7.43
2022-10-12T20:19:16.484Z,8.00
2022-10-12T20:21:42.908Z,7.30
2022-10-12T20:24:09.850Z,7.80
2022-10-12T20:26:36.757Z,7.57
2022-10-12T20:29:03.157Z,6.80
2022-10-12T20:31:29.658Z,6.60
2022-10-12T20:33:57.809Z,7.37
2022-10-12T20:36:29.363Z,7.53
2022-10-12T20:38:57.529Z,7.33
2022-10-12T20:41:25.259Z,6.80
2022-10-12T20:43:59.159Z,7.20
2022-10-12T20:46:26.695Z,7.07
2022-10-12T20:48:58.660Z,7.77
2022-10-12T20:51:28.720Z,6.37
2022-10-12T20:53:58.890Z,6.97
2022-10-12T20:56:25.694Z,6.90
2022-10-12T20:58:53.302Z,7.17
2022-10-12T21:01:19.757Z,6.50
2022-10-12T21:03:46.249Z,6.90
2022-10-12T21:06:15.595Z,6.93
2022-10-12T21:08:42.664Z,7.80
2022-10-12T21:11:10.364Z,7.03
2022-10-12T21:13:41.130Z,7.03
2022-10-12T21:16:09.294Z,6.73
2022-10-12T21:18:38.184Z,7.17
2022-10-12T21:21:16.319Z,6.50
2022-10-12T21:23:44.159Z,6.57
2022-10-12T21:26:18.201Z,8.13
2022-10-12T21:28:45.338Z,7.57
2022-10-12T21:31:13.360Z,6.97
2022-10-12T21:33:39.865Z,6.63
2022-10-12T21:36:14.932Z,7.50
2022-10-12T21:38:42.203Z,6.30
2022-10-12T21:41:09.853Z,7.67
2022-10-12T21:43:37.149Z,6.43
2022-10-12T21:46:04.903Z,6.73
2022-10-12T21:48:32.567Z,7.37
2022-10-12T21:50:59.847Z,6.93
2022-10-12T21:53:26.352Z,6.40
2022-10-12T21:55:52.801Z,6.70
2022-10-12T21:58:19.230Z,7.30
2022-10-12T22:00:45.791Z,6.70
2022-10-12T22:03:12.659Z,6.83
2022-10-12T22:05:40.187Z,6.83
2022-10-12T22:08:06.848Z,7.00
2022-10-12T22:10:39.065Z,7.30
2022-10-12T22:13:06.828Z,7.60
2022-10-12T22:15:33.728Z,6.90
2022-10-12T22:18:00.201Z,7.10
2022-10-12T22:20:26.642Z,7.13
2022-10-12T22:22:53.255Z,7.40
2022-10-12T22:25:19.647Z,7.33
2022-10-12T22:27:46.062Z,6.97
2022-10-12T22:30:12.700Z,7.07
2022-10-12T22:32:39.105Z,7.30
2022-10-12T22:35:05.958Z,8.10
2022-10-12T22:37:32.360Z,7.47
2022-10-12T22:39:58.740Z,6.57
2022-10-12T22:42:25.298Z,7.43
2022-10-12T22:44:51.660Z,6.80
2022-10-12T22:47:18.082Z,8.07
2022-10-12T22:49:44.474Z,8.47
2022-10-12T22:52:10.910Z,7.93
2022-10-12T22:54:37.330Z,7.23
2022-10-12T22:57:03.823Z,6.70
2022-10-12T22:59:30.352Z,7.57
2022-10-12T23:01:56.840Z,7.23
2022-10-12T23:04:23.289Z,7.67
2022-10-12T23:06:49.842Z,8.00
2022-10-12T23:09:16.313Z,8.07
2022-10-12T23:11:42.728Z,7.07
2022-10-12T23:14:10.095Z,7.90
2022-10-12T23:16:36.522Z,7.57
2022-10-12T23:19:05.066Z,7.00
2022-10-12T23:21:33.458Z,7.13
2022-10-12T23:24:01.081Z,7.33
2022-10-12T23:26:29.316Z,7.00
2022-10-12T23:28:56.053Z,6.93
2022-10-12T23:31:24.702Z,6.93
2022-10-12T23:33:55.912Z,7.00
2022-10-12T23:36:22.328Z,7.20
2022-10-12T23:38:48.691Z,7.77
2022-10-12T23:41:15.193Z,7.17
2022-10-12T23:43:41.923Z,7.27
2022-10-12T23:46:08.683Z,6.70
2022-10-12T23:48:35.126Z,6.83
2022-10-12T23:51:01.567Z,7.10
2022-10-12T23:53:28.439Z,6.90
2022-10-12T23:55:54.925Z,6.53
2022-10-12T23:58:21.726Z,6.60
